createdAt,value
2018-05-16T00:00:15.457Z,70.23
2018-05-16T00:02:41.951Z,68.85
2018-05-16T00:05:08.342Z,69.01
2018-05-16T00:07:34.777Z,69.19
2018-05-16T00:10:01.372Z,68.70
2018-05-16T00:12:28.568Z,69.20
2018-05-16T00:14:55.042Z,69.47
2018-05-16T00:17:21.461Z,69.94
2018-05-16T00:19:47.906Z,69.55
2018-05-16T00:22:15.057Z,68.88
2018-05-16T00:24:41.489Z,69.15
2018-05-16T00:27:08.368Z,69.07
2018-05-16T00:29:35.641Z,68.60
2018-05-16T00:32:02.308Z,69.28
2018-05-16T00:34:28.793Z,69.64
2018-05-16T00:36:55.957Z,70.34
2018-05-16T00:39:22.366Z,71.48
2018-05-16T00:41:49.490Z,71.89
2018-05-16T00:44:15.890Z,71.78
2018-05-16T00:46:42.282Z,71.82
2018-05-16T00:49:09.421Z,71.30
2018-05-16T00:51:36.579Z,71.15
2018-05-16T00:54:03.765Z,71.59
2018-05-16T00:56:30.181Z,72.20
2018-05-16T00:58:56.557Z,72.65
2018-05-16T01:01:22.969Z,72.58
2018-05-16T01:03:49.376Z,73.13
2018-05-16T01:06:15.793Z,73.22
2018-05-16T01:08:42.953Z,73.79
2018-05-16T01:11:09.336Z,73.13
2018-05-16T01:13:36.021Z,72.35
2018-05-16T01:16:02.866Z,72.32
2018-05-16T01:18:30.009Z,72.38
2018-05-16T01:20:57.289Z,72.90
2018-05-16T01:23:23.747Z,73.56
2018-05-16T01:25:50.220Z,73.26
2018-05-16T01:28:17.406Z,73.02
2018-05-16T01:30:43.873Z,74.00
2018-05-16T01:33:10.559Z,73.80
2018-05-16T01:35:36.987Z,73.54
2018-05-16T01:38:04.141Z,73.36
2018-05-16T01:40:31.250Z,73.28
2018-05-16T01:42:57.710Z,73.70
2018-05-16T01:45:24.966Z,73.37
2018-05-16T01:47:52.280Z,72.67
2018-05-16T01:50:18.683Z,72.22
2018-05-16T01:52:45.110Z,71.87
2018-05-16T01:55:11.632Z,71.88
2018-05-16T01:57:38.885Z,71.45
2018-05-16T02:00:06.069Z,71.54
2018-05-16T02:02:32.486Z,72.03
2018-05-16T02:04:59.037Z,72.49
2018-05-16T02:07:25.444Z,73.14
2018-05-16T02:09:52.479Z,74.20
2018-05-16T02:12:19.723Z,75.44
2018-05-16T02:14:47.313Z,76.55
2018-05-16T02:17:13.714Z,77.05
2018-05-16T02:19:40.951Z,77.45
2018-05-16T02:22:07.416Z,77.58
2018-05-16T02:24:33.848Z,78.58
2018-05-16T02:27:00.231Z,78.73
2018-05-16T02:29:26.643Z,79.55
2018-05-16T02:31:53.324Z,79.12
2018-05-16T02:34:20.685Z,79.18
2018-05-16T02:36:48.066Z,81.27
2018-05-16T02:39:15.418Z,80.74
2018-05-16T02:41:41.829Z,81.47
2018-05-16T02:44:08.957Z,81.20
2018-05-16T02:46:35.432Z,80.51
2018-05-16T02:49:01.863Z,80.64
2018-05-16T02:51:29.054Z,80.40
2018-05-16T02:53:55.540Z,79.44
2018-05-16T02:56:22.664Z,81.31
2018-05-16T02:58:49.073Z,81.28
2018-05-16T03:01:15.515Z,81.84
2018-05-16T03:03:41.986Z,82.54
2018-05-16T03:06:09.161Z,81.91
2018-05-16T03:08:35.563Z,83.69
2018-05-16T03:11:02.681Z,83.64
2018-05-16T03:13:29.173Z,84.03
2018-05-16T03:15:55.620Z,83.57
2018-05-16T03:18:22.166Z,82.54
2018-05-16T03:20:48.578Z,81.80
2018-05-16T03:23:15.007Z,81.82
2018-05-16T03:25:41.464Z,81.77
2018-05-16T03:28:08.015Z,82.15
2018-05-16T03:30:34.502Z,82.06
2018-05-16T03:33:01.921Z,82.13
2018-05-16T03:35:28.356Z,82.25
2018-05-16T03:37:54.772Z,82.17
2018-05-16T03:40:21.233Z,82.42
2018-05-16T03:42:47.685Z,81.92
2018-05-16T03:45:14.866Z,82.59
2018-05-16T03:47:42.769Z,81.57
2018-05-16T03:50:09.981Z,81.12
2018-05-16T03:52:36.374Z,81.68
2018-05-16T03:55:03.555Z,82.09
2018-05-16T03:57:48.636Z,82.79
2018-05-16T04:00:33.545Z,82.83
2018-05-16T04:03:18.638Z,83.23
2018-05-16T04:05:45.782Z,82.48
2018-05-16T04:08:13.094Z,82.24
2018-05-16T04:10:39.785Z,82.36
2018-05-16T04:13:06.993Z,81.96
2018-05-16T04:15:33.465Z,82.30
2018-05-16T04:17:59.956Z,82.71
2018-05-16T04:20:26.497Z,82.87
2018-05-16T04:22:52.903Z,82.97
2018-05-16T04:25:19.323Z,81.99
2018-05-16T04:27:45.842Z,82.54
2018-05-16T04:30:12.273Z,82.26
2018-05-16T04:32:39.582Z,82.51
2018-05-16T04:35:06.002Z,83.91
2018-05-16T04:37:32.388Z,83.51
2018-05-16T04:39:59.526Z,83.30
2018-05-16T04:42:26.651Z,83.07
2018-05-16T04:44:53.259Z,82.63
2018-05-16T04:47:19.695Z,82.35
2018-05-16T04:49:46.137Z,82.06
2018-05-16T04:52:12.665Z,82.37
2018-05-16T04:54:39.110Z,83.17
2018-05-16T04:57:05.675Z,82.87
2018-05-16T04:59:33.575Z,82.27
2018-05-16T05:02:00.212Z,81.87
2018-05-16T05:04:26.637Z,81.46
2018-05-16T05:06:53.795Z,82.20
2018-05-16T05:09:20.388Z,82.62
2018-05-16T05:11:46.865Z,82.67
2018-05-16T05:14:13.605Z,83.16
2018-05-16T05:16:40.379Z,81.98
2018-05-16T05:19:07.057Z,81.51
2018-05-16T05:21:35.043Z,82.97
2018-05-16T05:24:01.931Z,82.37
2018-05-16T05:26:28.237Z,81.95
2018-05-16T05:28:54.762Z,81.31
2018-05-16T05:31:21.502Z,81.86
2018-05-16T05:33:48.225Z,82.04
2018-05-16T05:36:15.334Z,82.34
2018-05-16T05:38:41.773Z,80.72
2018-05-16T05:41:08.259Z,80.60
2018-05-16T05:43:34.821Z,80.90
2018-05-16T05:46:01.203Z,81.16
2018-05-16T05:48:28.692Z,80.27
2018-05-16T05:50:55.525Z,79.78
2018-05-16T05:53:21.940Z,79.71
2018-05-16T05:58:22.942Z,78.09
2018-05-16T06:00:49.802Z,78.33
2018-05-16T06:03:17.324Z,79.80
2018-05-16T06:05:45.786Z,78.91
2018-05-16T06:08:13.700Z,79.73
2018-05-16T06:10:40.482Z,78.14
2018-05-16T06:13:07.676Z,78.29
2018-05-16T06:15:34.364Z,78.63
2018-05-16T06:18:01.215Z,78.25
2018-05-16T06:20:28.565Z,78.59
2018-05-16T06:22:55.868Z,79.06
2018-05-16T06:25:22.253Z,78.21
2018-05-16T06:27:48.613Z,78.37
2018-05-16T06:30:15.039Z,77.23
2018-05-16T06:32:42.231Z,77.31
2018-05-16T06:35:09.398Z,75.98
2018-05-16T06:37:36.178Z,76.08
2018-05-16T06:40:03.392Z,73.87
2018-05-16T06:42:29.864Z,73.69
2018-05-16T06:44:56.247Z,74.25
2018-05-16T06:47:22.646Z,73.99
2018-05-16T06:49:49.137Z,73.00
2018-05-16T06:52:15.580Z,71.94
2018-05-16T06:54:42.699Z,71.91
2018-05-16T06:57:09.289Z,70.94
2018-05-16T06:59:35.686Z,68.98
2018-05-16T07:02:02.075Z,71.23
2018-05-16T07:04:28.529Z,70.25
2018-05-16T07:06:54.918Z,69.49
2018-05-16T07:09:21.322Z,69.78
2018-05-16T07:11:48.473Z,69.21
2018-05-16T07:14:14.869Z,69.99
2018-05-16T07:16:41.274Z,70.32
2018-05-16T07:19:07.703Z,70.50
2018-05-16T07:21:34.179Z,71.12
2018-05-16T07:24:00.742Z,72.06
2018-05-16T07:26:27.111Z,71.43
2018-05-16T07:28:53.534Z,74.21
2018-05-16T07:31:19.957Z,73.83
2018-05-16T07:33:46.407Z,73.11
2018-05-16T07:36:13.138Z,74.61
2018-05-16T07:38:39.570Z,73.52
2018-05-16T07:41:06.111Z,73.93
2018-05-16T07:43:33.311Z,74.03
2018-05-16T07:45:59.731Z,72.95
2018-05-16T07:48:26.154Z,72.26
2018-05-16T07:50:52.552Z,73.75
2018-05-16T07:53:19.057Z,72.52
2018-05-16T07:55:45.454Z,74.26
2018-05-16T07:58:12.174Z,75.03
2018-05-16T08:00:39.005Z,75.31
2018-05-16T08:03:05.436Z,75.73
2018-05-16T08:05:31.917Z,75.88
2018-05-16T08:07:58.325Z,77.63
2018-05-16T08:10:24.805Z,79.68
2018-05-16T08:12:51.916Z,80.02
2018-05-16T08:15:18.454Z,80.33
2018-05-16T08:17:44.856Z,81.28
2018-05-16T08:20:11.239Z,81.41
2018-05-16T08:22:37.679Z,80.54
2018-05-16T08:25:04.059Z,80.46
2018-05-16T08:27:30.449Z,79.52
2018-05-16T08:29:56.921Z,79.19
2018-05-16T08:32:23.345Z,78.91
2018-05-16T08:34:50.495Z,78.07
2018-05-16T08:37:17.594Z,77.40
2018-05-16T08:39:44.040Z,77.19
2018-05-16T08:42:10.461Z,77.14
2018-05-16T08:44:36.999Z,77.26
2018-05-16T08:47:03.389Z,78.44
2018-05-16T08:49:29.758Z,77.74
2018-05-16T08:51:56.358Z,78.31
2018-05-16T08:54:22.754Z,78.94
2018-05-16T08:56:49.921Z,77.80
2018-05-16T08:59:16.450Z,78.58
2018-05-16T09:01:43.685Z,78.41
2018-05-16T09:04:10.856Z,77.14
2018-05-16T09:06:37.990Z,77.45
2018-05-16T09:09:04.466Z,77.66
2018-05-16T09:11:31.208Z,77.48
2018-05-16T09:13:57.778Z,75.86
2018-05-16T09:16:24.461Z,74.15
2018-05-16T09:18:51.917Z,72.95
2018-05-16T09:21:19.095Z,71.91
2018-05-16T09:23:45.555Z,71.10
2018-05-16T09:26:11.969Z,69.58
2018-05-16T09:28:38.525Z,68.58
2018-05-16T09:31:04.966Z,69.31
2018-05-16T09:33:31.606Z,69.85
2018-05-16T09:35:58.028Z,69.05
2018-05-16T09:38:24.603Z,71.83
2018-05-16T09:40:51.785Z,72.64
2018-05-16T09:43:18.189Z,72.58
2018-05-16T09:45:46.497Z,73.29
2018-05-16T09:48:12.871Z,71.76
2018-05-16T09:50:40.765Z,72.54
2018-05-16T09:53:08.282Z,76.22
2018-05-16T09:55:34.833Z,75.23
2018-05-16T09:58:01.768Z,74.95
2018-05-16T10:00:28.955Z,74.24
2018-05-16T10:02:56.425Z,74.77
2018-05-16T10:05:22.844Z,73.41
2018-05-16T10:07:49.314Z,72.51
2018-05-16T10:10:15.822Z,72.40
2018-05-16T10:12:43.070Z,72.62
2018-05-16T10:15:09.549Z,71.72
2018-05-16T10:17:35.945Z,72.91
2018-05-16T10:20:02.684Z,73.82
2018-05-16T10:22:29.120Z,73.42
2018-05-16T10:24:55.516Z,73.88
2018-05-16T10:27:23.701Z,73.78
2018-05-16T10:29:50.888Z,73.78
2018-05-16T10:32:17.611Z,72.86
2018-05-16T10:34:45.184Z,73.00
2018-05-16T10:37:11.608Z,72.14
2018-05-16T10:39:38.448Z,69.27
2018-05-16T10:42:07.137Z,69.10
2018-05-16T10:44:33.881Z,67.44
2018-05-16T10:47:00.702Z,67.23
2018-05-16T10:49:28.205Z,68.20
2018-05-16T10:51:54.977Z,65.48
2018-05-16T10:54:21.395Z,64.74
2018-05-16T10:56:48.052Z,64.97
2018-05-16T10:59:16.081Z,64.24
2018-05-16T11:01:43.214Z,64.16
2018-05-16T11:04:10.210Z,63.45
2018-05-16T11:06:36.654Z,63.67
2018-05-16T11:09:05.622Z,63.99
2018-05-16T11:11:32.469Z,62.26
2018-05-16T11:13:59.983Z,64.13
2018-05-16T11:16:26.463Z,63.33
2018-05-16T11:18:52.929Z,62.44
2018-05-16T11:21:20.187Z,62.16
2018-05-16T11:23:46.707Z,63.58
2018-05-16T11:26:14.007Z,64.71
2018-05-16T11:28:40.523Z,66.90
2018-05-16T11:31:06.959Z,69.66
2018-05-16T11:33:33.365Z,70.36
2018-05-16T11:36:01.101Z,69.59
2018-05-16T11:38:27.557Z,71.42
2018-05-16T11:40:55.040Z,74.27
2018-05-16T11:43:21.452Z,75.71
2018-05-16T11:45:48.720Z,74.99
2018-05-16T11:48:15.973Z,74.85
2018-05-16T11:50:43.118Z,73.64
2018-05-16T11:53:10.331Z,72.44
2018-05-16T11:55:36.775Z,72.60
2018-05-16T11:58:03.292Z,69.71
2018-05-16T12:00:29.708Z,67.77
2018-05-16T12:02:56.219Z,65.63
2018-05-16T12:05:23.608Z,65.65
2018-05-16T12:07:50.122Z,65.43
2018-05-16T12:10:16.607Z,65.70
2018-05-16T12:12:43.147Z,63.35
2018-05-16T12:15:09.553Z,59.48
2018-05-16T12:17:36.053Z,60.22
2018-05-16T12:20:02.455Z,60.57
2018-05-16T12:22:29.795Z,55.65
2018-05-16T12:24:57.709Z,54.97
2018-05-16T12:27:24.694Z,53.86
2018-05-16T12:29:51.469Z,54.75
2018-05-16T12:32:19.346Z,54.30
2018-05-16T12:34:45.963Z,50.11
2018-05-16T12:37:12.741Z,52.91
2018-05-16T12:39:39.232Z,50.68
2018-05-16T12:42:05.928Z,50.05
2018-05-16T12:44:32.370Z,47.75
2018-05-16T12:46:59.304Z,49.56
2018-05-16T12:49:26.190Z,50.46
2018-05-16T12:51:52.740Z,52.73
2018-05-16T12:54:19.624Z,51.34
2018-05-16T12:56:46.113Z,53.67
2018-05-16T12:59:12.698Z,54.56
2018-05-16T13:01:39.501Z,55.06
2018-05-16T13:04:06.849Z,51.94
2018-05-16T13:06:34.036Z,50.96
2018-05-16T13:09:00.769Z,50.72
2018-05-16T13:11:27.344Z,48.96
2018-05-16T13:13:54.337Z,46.86
2018-05-16T13:16:21.551Z,47.59
2018-05-16T13:18:48.467Z,50.01
2018-05-16T13:21:15.074Z,49.28
2018-05-16T13:23:42.590Z,49.16
2018-05-16T13:26:09.039Z,47.59
2018-05-16T13:28:35.425Z,43.70
2018-05-16T13:31:01.827Z,42.14
2018-05-16T13:33:29.021Z,42.52
2018-05-16T13:35:55.445Z,41.03
2018-05-16T13:38:21.881Z,41.08
2018-05-16T13:40:48.299Z,44.01
2018-05-16T13:43:14.905Z,48.56
2018-05-16T13:45:42.057Z,51.53
2018-05-16T13:48:09.193Z,52.92
2018-05-16T13:50:42.627Z,51.11
2018-05-16T13:53:09.315Z,49.53
2018-05-16T13:55:35.730Z,47.60
2018-05-16T13:58:02.155Z,40.38
2018-05-16T14:00:28.785Z,35.11
2018-05-16T14:02:55.304Z,33.58
2018-05-16T14:05:21.749Z,29.71
2018-05-16T14:07:48.515Z,30.60
2018-05-16T14:10:15.080Z,31.39
2018-05-16T14:12:42.177Z,31.56
2018-05-16T14:15:09.393Z,33.24
2018-05-16T14:17:36.700Z,36.55
2018-05-16T14:20:03.391Z,38.12
2018-05-16T14:22:29.914Z,39.32
2018-05-16T14:24:57.159Z,40.58
2018-05-16T14:27:23.576Z,41.01
2018-05-16T14:29:49.971Z,41.70
2018-05-16T14:32:16.424Z,44.28
2018-05-16T14:34:42.961Z,48.21
2018-05-16T14:37:09.384Z,51.19
2018-05-16T14:39:35.826Z,52.44
2018-05-16T14:42:02.229Z,51.08
2018-05-16T14:44:29.066Z,52.12
2018-05-16T14:46:55.493Z,51.93
2018-05-16T14:49:22.719Z,54.08
2018-05-16T14:51:49.726Z,55.98
2018-05-16T14:54:17.830Z,57.72
2018-05-16T14:56:44.330Z,58.55
2018-05-16T14:59:10.734Z,60.16
2018-05-16T15:01:37.645Z,62.74
2018-05-16T15:04:04.322Z,64.74
2018-05-16T15:06:30.780Z,66.72
2018-05-16T15:08:57.165Z,68.28
2018-05-16T15:11:24.311Z,69.76
2018-05-16T15:13:51.731Z,72.37
2018-05-16T15:16:18.256Z,73.86
2018-05-16T15:18:45.086Z,74.95
2018-05-16T15:21:11.525Z,75.81
2018-05-16T15:23:37.960Z,74.30
2018-05-16T15:26:04.894Z,74.25
2018-05-16T15:28:31.337Z,75.37
2018-05-16T15:30:58.146Z,75.61
2018-05-16T15:33:25.595Z,75.01
2018-05-16T15:35:52.946Z,72.11
2018-05-16T15:38:20.232Z,71.34
2018-05-16T15:40:46.633Z,74.22
2018-05-16T15:43:13.809Z,71.48
2018-05-16T15:45:40.297Z,67.35
2018-05-16T15:48:07.060Z,64.37
2018-05-16T15:50:34.357Z,63.01
2018-05-16T15:53:01.206Z,60.58
2018-05-16T15:55:27.891Z,59.26
2018-05-16T15:57:55.023Z,54.13
2018-05-16T16:00:22.472Z,48.98
2018-05-16T16:02:49.404Z,49.34
2018-05-16T16:05:16.442Z,51.21
2018-05-16T16:07:43.513Z,53.81
2018-05-16T16:10:09.949Z,55.34
2018-05-16T16:12:36.383Z,54.10
2018-05-16T16:15:02.938Z,56.72
2018-05-16T16:17:30.375Z,57.74
2018-05-16T16:19:56.866Z,60.76
2018-05-16T16:22:23.283Z,62.24
2018-05-16T16:24:49.845Z,62.13
2018-05-16T16:27:16.371Z,63.41
2018-05-16T16:29:42.785Z,63.12
2018-05-16T16:32:09.193Z,62.79
2018-05-16T16:34:36.909Z,62.92
2018-05-16T16:37:03.334Z,66.23
2018-05-16T16:39:29.854Z,67.13
2018-05-16T16:41:56.580Z,66.90
2018-05-16T16:44:23.898Z,67.21
2018-05-16T16:46:57.469Z,67.64
2018-05-16T16:49:23.942Z,67.84
2018-05-16T16:51:51.409Z,67.86
2018-05-16T16:54:18.563Z,67.55
2018-05-16T16:56:46.094Z,66.40
2018-05-16T16:59:12.716Z,67.38
2018-05-16T17:01:39.534Z,66.17
2018-05-16T17:04:05.962Z,63.33
2018-05-16T17:06:32.762Z,61.45
2018-05-16T17:08:59.276Z,58.92
2018-05-16T17:11:26.535Z,59.76
2018-05-16T17:13:52.989Z,59.23
2018-05-16T17:16:21.032Z,57.93
2018-05-16T17:18:47.525Z,59.02
2018-05-16T17:21:14.860Z,58.71
2018-05-16T17:23:41.362Z,57.74
2018-05-16T17:26:07.812Z,58.51
2018-05-16T17:28:34.651Z,60.34
2018-05-16T17:31:01.944Z,63.24
2018-05-16T17:33:29.846Z,63.08
2018-05-16T17:35:56.384Z,63.07
2018-05-16T17:38:23.264Z,60.28
2018-05-16T17:40:49.743Z,57.64
2018-05-16T17:43:18.106Z,59.42
2018-05-16T17:45:44.600Z,61.67
2018-05-16T17:48:11.030Z,62.97
2018-05-16T17:50:37.801Z,63.57
2018-05-16T17:53:04.203Z,63.99
2018-05-16T17:55:30.682Z,65.85
2018-05-16T17:57:57.180Z,65.95
2018-05-16T18:00:24.475Z,66.80
2018-05-16T18:02:50.949Z,68.78
2018-05-16T18:05:17.485Z,69.21
2018-05-16T18:07:44.277Z,69.84
2018-05-16T18:10:10.766Z,68.13
2018-05-16T18:12:38.149Z,68.32
2018-05-16T18:15:24.365Z,68.38
2018-05-16T18:17:51.331Z,70.26
2018-05-16T18:20:18.605Z,69.64
2018-05-16T18:22:45.484Z,68.86
2018-05-16T18:25:12.039Z,70.21
2018-05-16T18:27:39.427Z,69.87
2018-05-16T18:30:06.385Z,69.00
2018-05-16T18:32:33.516Z,68.40
2018-05-16T18:35:01.003Z,70.83
2018-05-16T18:37:28.000Z,71.49
2018-05-16T18:39:54.984Z,71.98
2018-05-16T18:42:21.893Z,70.81
2018-05-16T18:44:48.316Z,71.50
2018-05-16T18:47:14.813Z,71.98
2018-05-16T18:49:42.606Z,71.35
2018-05-16T18:52:09.030Z,71.42
2018-05-16T18:54:36.535Z,71.96
2018-05-16T18:57:03.100Z,72.06
2018-05-16T18:59:30.431Z,73.44
2018-05-16T19:01:56.934Z,74.71
2018-05-16T19:04:23.348Z,75.79
2018-05-16T19:06:50.472Z,75.76
2018-05-16T19:09:17.662Z,76.71
2018-05-16T19:11:44.188Z,78.04
2018-05-16T19:14:10.804Z,77.64
2018-05-16T19:16:38.038Z,76.07
2018-05-16T19:19:04.465Z,75.32
2018-05-16T19:21:30.899Z,75.81
2018-05-16T19:23:57.578Z,76.01
2018-05-16T19:26:23.980Z,76.96
2018-05-16T19:28:50.491Z,77.44
2018-05-16T19:31:16.927Z,76.81
2018-05-16T19:33:43.447Z,76.98
2018-05-16T19:36:09.843Z,77.05
2018-05-16T19:38:37.016Z,78.08
2018-05-16T19:41:03.617Z,78.62
2018-05-16T19:43:30.216Z,79.67
2018-05-16T19:45:56.647Z,78.88
2018-05-16T19:48:23.022Z,79.40
2018-05-16T19:50:49.717Z,78.33
2018-05-16T19:53:16.151Z,77.24
2018-05-16T19:55:42.636Z,75.85
2018-05-16T19:58:09.847Z,76.24
2018-05-16T20:00:38.370Z,76.89
2018-05-16T20:03:05.721Z,76.58
2018-05-16T20:05:33.043Z,77.87
2018-05-16T20:07:59.880Z,78.56
2018-05-16T20:10:26.403Z,78.86
2018-05-16T20:12:53.676Z,78.24
2018-05-16T20:15:20.458Z,79.27
2018-05-16T20:17:46.892Z,78.67
2018-05-16T20:20:13.510Z,75.56
2018-05-16T20:22:41.289Z,79.35
2018-05-16T20:25:08.054Z,79.83
2018-05-16T20:27:34.522Z,80.09
2018-05-16T20:30:01.017Z,78.46
2018-05-16T20:32:27.700Z,78.18
2018-05-16T20:34:55.368Z,78.87
2018-05-16T20:37:21.986Z,78.67
2018-05-16T20:39:48.555Z,79.17
2018-05-16T20:42:15.871Z,79.82
2018-05-16T20:44:42.423Z,80.41
2018-05-16T20:47:09.014Z,80.61
2018-05-16T20:49:35.671Z,81.34
2018-05-16T20:52:02.472Z,81.26
2018-05-16T20:54:29.140Z,80.47
2018-05-16T20:56:55.889Z,81.49
2018-05-16T20:59:22.448Z,81.34
2018-05-16T21:01:49.466Z,81.49
2018-05-16T21:04:17.318Z,81.40
2018-05-16T21:06:46.136Z,81.44
2018-05-16T21:09:12.809Z,81.58
2018-05-16T21:11:40.706Z,81.56
2018-05-16T21:14:07.268Z,81.53
2018-05-16T21:16:34.120Z,80.99
2018-05-16T21:19:00.626Z,80.64
2018-05-16T21:21:27.074Z,81.33
2018-05-16T21:23:53.683Z,81.31
2018-05-16T21:26:21.465Z,81.43
2018-05-16T21:28:49.050Z,80.72
2018-05-16T21:31:15.478Z,80.70
2018-05-16T21:33:42.806Z,81.47
2018-05-16T21:36:09.588Z,80.76
2018-05-16T21:38:36.195Z,80.57
2018-05-16T21:41:02.842Z,80.72
2018-05-16T21:43:30.020Z,81.22
2018-05-16T21:45:56.601Z,80.49
2018-05-16T21:48:24.446Z,80.03
2018-05-16T21:50:51.642Z,79.80
2018-05-16T21:53:18.109Z,80.48
2018-05-16T21:55:45.414Z,80.27
2018-05-16T21:58:11.834Z,79.14
2018-05-16T22:00:39.051Z,78.82
2018-05-16T22:03:05.671Z,78.38
2018-05-16T22:05:32.297Z,78.27
2018-05-16T22:07:59.582Z,79.65
2018-05-16T22:10:26.106Z,80.46
2018-05-16T22:12:52.719Z,80.77
2018-05-16T22:15:19.233Z,81.70
2018-05-16T22:17:45.761Z,80.54
2018-05-16T22:20:13.153Z,81.36
2018-05-16T22:22:39.856Z,82.15
2018-05-16T22:25:06.250Z,82.05
2018-05-16T22:27:32.687Z,82.07
2018-05-16T22:30:00.009Z,81.58
2018-05-16T22:32:32.660Z,81.30
2018-05-16T22:35:05.130Z,80.90
2018-05-16T22:37:37.911Z,80.82
2018-05-16T22:40:12.514Z,79.36
2018-05-16T22:42:38.922Z,79.48
2018-05-16T22:45:05.418Z,80.68
2018-05-16T22:47:31.906Z,78.95
2018-05-16T22:49:58.384Z,78.76
2018-05-16T22:52:24.813Z,79.30
2018-05-16T22:54:51.292Z,80.17
2018-05-16T22:57:17.670Z,79.32
2018-05-16T22:59:44.090Z,78.78
2018-05-16T23:02:12.475Z,78.80
2018-05-16T23:04:39.637Z,78.75
2018-05-16T23:07:06.108Z,78.62
2018-05-16T23:09:32.547Z,78.40
2018-05-16T23:11:59.964Z,79.09
2018-05-16T23:14:26.371Z,78.17
2018-05-16T23:16:53.548Z,77.75
2018-05-16T23:19:19.941Z,77.75
2018-05-16T23:21:46.347Z,77.57
2018-05-16T23:24:12.706Z,76.89
2018-05-16T23:26:39.365Z,76.90
2018-05-16T23:29:06.532Z,77.82
2018-05-16T23:31:32.965Z,77.17
2018-05-16T23:33:59.360Z,77.28
2018-05-16T23:36:27.270Z,77.14
2018-05-16T23:38:53.717Z,77.34
2018-05-16T23:41:20.093Z,77.07
2018-05-16T23:43:46.451Z,77.74
2018-05-16T23:46:12.853Z,78.03
2018-05-16T23:48:39.275Z,77.66
2018-05-16T23:51:05.702Z,78.20
2018-05-16T23:53:32.128Z,77.62
2018-05-16T23:55:58.529Z,77.40
2018-05-16T23:58:24.909Z,77.12
